sensor_id;sensor_type;location;lat;lon;timestamp;P1;durP1;ratioP1;P2;durP2;ratioP2
66886;SDS011;67239;51.680;5.976;2023-05-02T00:02:05;41.67;;;23.35;;
66886;SDS011;67239;51.680;5.976;2023-05-02T00:04:33;37.65;;;21.42;;
66886;SDS011;67239;51.680;5.976;2023-05-02T00:07:00;40.70;;;22.02;;
66886;SDS011;67239;51.680;5.976;2023-05-02T00:09:28;40.47;;;22.05;;
66886;SDS011;67239;51.680;5.976;2023-05-02T00:11:55;37.95;;;21.92;;
66886;SDS011;67239;51.680;5.976;2023-05-02T00:14:22;39.15;;;22.77;;
66886;SDS011;67239;51.680;5.976;2023-05-02T00:16:51;38.78;;;22.10;;
66886;SDS011;67239;51.680;5.976;2023-05-02T00:19:18;37.45;;;22.33;;
66886;SDS011;67239;51.680;5.976;2023-05-02T00:21:48;39.70;;;22.40;;
66886;SDS011;67239;51.680;5.976;2023-05-02T00:24:16;45.47;;;21.65;;
66886;SDS011;67239;51.680;5.976;2023-05-02T00:26:44;43.35;;;23.95;;
66886;SDS011;67239;51.680;5.976;2023-05-02T00:29:11;37.15;;;21.92;;
66886;SDS011;67239;51.680;5.976;2023-05-02T00:31:39;39.70;;;21.33;;
66886;SDS011;67239;51.680;5.976;2023-05-02T00:34:07;36.60;;;21.70;;
66886;SDS011;67239;51.680;5.976;2023-05-02T00:36:34;38.47;;;21.48;;
66886;SDS011;67239;51.680;5.976;2023-05-02T00:39:01;36.42;;;21.45;;
66886;SDS011;67239;51.680;5.976;2023-05-02T00:41:28;36.55;;;20.25;;
66886;SDS011;67239;51.680;5.976;2023-05-02T00:43:55;37.45;;;19.38;;
66886;SDS011;67239;51.680;5.976;2023-05-02T00:46:23;28.13;;;17.77;;
66886;SDS011;67239;51.680;5.976;2023-05-02T00:48:51;26.48;;;14.18;;
66886;SDS011;67239;51.680;5.976;2023-05-02T00:51:18;25.38;;;12.48;;
66886;SDS011;67239;51.680;5.976;2023-05-02T00:53:45;21.60;;;10.98;;
66886;SDS011;67239;51.680;5.976;2023-05-02T00:56:13;19.55;;;10.68;;
66886;SDS011;67239;51.680;5.976;2023-05-02T00:58:40;21.65;;;10.45;;
66886;SDS011;67239;51.680;5.976;2023-05-02T01:10:54;19.20;;;10.98;;
66886;SDS011;67239;51.680;5.976;2023-05-02T01:13:42;17.40;;;10.77;;
66886;SDS011;67239;51.680;5.976;2023-05-02T01:16:12;20.25;;;12.00;;
66886;SDS011;67239;51.680;5.976;2023-05-02T01:18:44;19.95;;;11.63;;
66886;SDS011;67239;51.680;5.976;2023-05-02T01:21:16;21.15;;;12.15;;
66886;SDS011;67239;51.680;5.976;2023-05-02T01:24:04;20.60;;;12.75;;
66886;SDS011;67239;51.680;5.976;2023-05-02T01:29:37;27.50;;;14.52;;
66886;SDS011;67239;51.680;5.976;2023-05-02T01:32:06;26.80;;;15.60;;
66886;SDS011;67239;51.680;5.976;2023-05-02T01:34:37;31.25;;;16.85;;
66886;SDS011;67239;51.680;5.976;2023-05-02T01:37:10;32.73;;;18.13;;
66886;SDS011;67239;51.680;5.976;2023-05-02T01:39:40;28.88;;;17.27;;
66886;SDS011;67239;51.680;5.976;2023-05-02T01:42:10;31.38;;;18.20;;
66886;SDS011;67239;51.680;5.976;2023-05-02T01:44:39;33.60;;;19.15;;
66886;SDS011;67239;51.680;5.976;2023-05-02T01:47:09;36.80;;;19.60;;
66886;SDS011;67239;51.680;5.976;2023-05-02T01:49:36;33.10;;;18.52;;
66886;SDS011;67239;51.680;5.976;2023-05-02T01:52:06;28.00;;;17.33;;
66886;SDS011;67239;51.680;5.976;2023-05-02T01:54:39;28.73;;;16.63;;
66886;SDS011;67239;51.680;5.976;2023-05-02T01:57:08;29.17;;;16.75;;
66886;SDS011;67239;51.680;5.976;2023-05-02T01:59:39;30.02;;;17.95;;
66886;SDS011;67239;51.680;5.976;2023-05-02T02:02:07;31.83;;;17.92;;
66886;SDS011;67239;51.680;5.976;2023-05-02T02:04:38;37.65;;;19.40;;
66886;SDS011;67239;51.680;5.976;2023-05-02T02:07:09;37.65;;;20.35;;
66886;SDS011;67239;51.680;5.976;2023-05-02T02:09:39;37.50;;;20.25;;
66886;SDS011;67239;51.680;5.976;2023-05-02T02:12:09;30.80;;;18.27;;
66886;SDS011;67239;51.680;5.976;2023-05-02T02:14:45;35.70;;;20.13;;
66886;SDS011;67239;51.680;5.976;2023-05-02T02:17:23;30.17;;;16.98;;
66886;SDS011;67239;51.680;5.976;2023-05-02T02:19:57;31.65;;;18.73;;
66886;SDS011;67239;51.680;5.976;2023-05-02T02:22:30;32.05;;;18.30;;
66886;SDS011;67239;51.680;5.976;2023-05-02T02:25:05;31.38;;;18.55;;
66886;SDS011;67239;51.680;5.976;2023-05-02T02:27:37;32.45;;;18.50;;
66886;SDS011;67239;51.680;5.976;2023-05-02T02:30:06;33.25;;;18.25;;
66886;SDS011;67239;51.680;5.976;2023-05-02T02:32:36;30.13;;;17.90;;
66886;SDS011;67239;51.680;5.976;2023-05-02T02:35:05;36.28;;;19.20;;
66886;SDS011;67239;51.680;5.976;2023-05-02T02:41:00;30.25;;;18.45;;
66886;SDS011;67239;51.680;5.976;2023-05-02T02:44:03;32.92;;;18.52;;
66886;SDS011;67239;51.680;5.976;2023-05-02T02:46:56;30.42;;;18.15;;
66886;SDS011;67239;51.680;5.976;2023-05-02T02:52:43;33.15;;;17.58;;
66886;SDS011;67239;51.680;5.976;2023-05-02T02:55:50;36.35;;;19.35;;
66886;SDS011;67239;51.680;5.976;2023-05-02T02:58:38;28.65;;;17.90;;
66886;SDS011;67239;51.680;5.976;2023-05-02T03:01:14;28.35;;;16.77;;
66886;SDS011;67239;51.680;5.976;2023-05-02T03:03:50;31.50;;;17.15;;
66886;SDS011;67239;51.680;5.976;2023-05-02T03:06:20;29.95;;;17.15;;
66886;SDS011;67239;51.680;5.976;2023-05-02T03:08:48;29.90;;;17.55;;
66886;SDS011;67239;51.680;5.976;2023-05-02T03:11:18;28.38;;;17.20;;
66886;SDS011;67239;51.680;5.976;2023-05-02T03:13:46;31.77;;;17.65;;
66886;SDS011;67239;51.680;5.976;2023-05-02T03:16:35;29.48;;;17.88;;
66886;SDS011;67239;51.680;5.976;2023-05-02T03:21:38;27.95;;;16.98;;
66886;SDS011;67239;51.680;5.976;2023-05-02T03:24:11;29.73;;;14.48;;
66886;SDS011;67239;51.680;5.976;2023-05-02T03:26:39;25.52;;;13.02;;
66886;SDS011;67239;51.680;5.976;2023-05-02T03:29:08;14.45;;;8.32;;
66886;SDS011;67239;51.680;5.976;2023-05-02T03:31:39;9.73;;;5.15;;
66886;SDS011;67239;51.680;5.976;2023-05-02T03:34:06;13.00;;;5.70;;
66886;SDS011;67239;51.680;5.976;2023-05-02T03:36:35;13.38;;;5.82;;
66886;SDS011;67239;51.680;5.976;2023-05-02T03:39:02;13.43;;;5.90;;
66886;SDS011;67239;51.680;5.976;2023-05-02T03:41:29;11.30;;;5.22;;
66886;SDS011;67239;51.680;5.976;2023-05-02T03:44:02;9.37;;;4.33;;
66886;SDS011;67239;51.680;5.976;2023-05-02T03:46:30;9.82;;;4.22;;
66886;SDS011;67239;51.680;5.976;2023-05-02T03:48:57;9.27;;;4.38;;
66886;SDS011;67239;51.680;5.976;2023-05-02T03:51:25;11.48;;;4.18;;
66886;SDS011;67239;51.680;5.976;2023-05-02T03:53:54;11.88;;;4.45;;
66886;SDS011;67239;51.680;5.976;2023-05-02T03:56:22;13.55;;;4.18;;
66886;SDS011;67239;51.680;5.976;2023-05-02T03:59:00;7.63;;;3.75;;
66886;SDS011;67239;51.680;5.976;2023-05-02T04:01:27;9.57;;;3.25;;
66886;SDS011;67239;51.680;5.976;2023-05-02T04:03:56;7.50;;;2.80;;
66886;SDS011;67239;51.680;5.976;2023-05-02T04:06:25;9.20;;;3.03;;
66886;SDS011;67239;51.680;5.976;2023-05-02T04:08:57;8.32;;;2.58;;
66886;SDS011;67239;51.680;5.976;2023-05-02T04:11:32;5.82;;;2.05;;
66886;SDS011;67239;51.680;5.976;2023-05-02T04:14:01;5.85;;;1.85;;
66886;SDS011;67239;51.680;5.976;2023-05-02T04:16:29;6.13;;;1.98;;
66886;SDS011;67239;51.680;5.976;2023-05-02T04:18:57;9.98;;;2.05;;
66886;SDS011;67239;51.680;5.976;2023-05-02T04:21:25;7.28;;;2.10;;
66886;SDS011;67239;51.680;5.976;2023-05-02T04:23:53;6.50;;;2.45;;
66886;SDS011;67239;51.680;5.976;2023-05-02T04:26:21;11.20;;;1.92;;
66886;SDS011;67239;51.680;5.976;2023-05-02T04:28:54;7.85;;;2.33;;
66886;SDS011;67239;51.680;5.976;2023-05-02T04:31:21;9.15;;;2.10;;
66886;SDS011;67239;51.680;5.976;2023-05-02T04:33:50;11.90;;;2.45;;
66886;SDS011;67239;51.680;5.976;2023-05-02T04:36:22;7.63;;;2.25;;
66886;SDS011;67239;51.680;5.976;2023-05-02T04:38:51;5.07;;;1.98;;
66886;SDS011;67239;51.680;5.976;2023-05-02T04:41:18;9.00;;;1.80;;
66886;SDS011;67239;51.680;5.976;2023-05-02T04:43:51;10.10;;;2.00;;
66886;SDS011;67239;51.680;5.976;2023-05-02T04:46:18;16.17;;;2.78;;
66886;SDS011;67239;51.680;5.976;2023-05-02T04:48:45;9.23;;;2.20;;
66886;SDS011;67239;51.680;5.976;2023-05-02T04:51:12;20.10;;;2.70;;
66886;SDS011;67239;51.680;5.976;2023-05-02T04:53:44;9.98;;;2.78;;
66886;SDS011;67239;51.680;5.976;2023-05-02T04:56:11;11.43;;;2.60;;
66886;SDS011;67239;51.680;5.976;2023-05-02T04:58:38;15.40;;;2.53;;
66886;SDS011;67239;51.680;5.976;2023-05-02T05:01:08;9.13;;;2.00;;
66886;SDS011;67239;51.680;5.976;2023-05-02T05:03:35;22.85;;;3.28;;
66886;SDS011;67239;51.680;5.976;2023-05-02T05:06:03;9.35;;;2.10;;
66886;SDS011;67239;51.680;5.976;2023-05-02T05:08:31;12.55;;;2.13;;
66886;SDS011;67239;51.680;5.976;2023-05-02T05:10:59;9.00;;;1.83;;
66886;SDS011;67239;51.680;5.976;2023-05-02T05:13:27;15.52;;;2.60;;
66886;SDS011;67239;51.680;5.976;2023-05-02T05:15:54;16.95;;;2.78;;
66886;SDS011;67239;51.680;5.976;2023-05-02T05:18:25;16.98;;;2.95;;
66886;SDS011;67239;51.680;5.976;2023-05-02T05:20:52;18.80;;;2.60;;
66886;SDS011;67239;51.680;5.976;2023-05-02T05:23:19;4.55;;;1.70;;
66886;SDS011;67239;51.680;5.976;2023-05-02T05:25:47;26.98;;;3.53;;
66886;SDS011;67239;51.680;5.976;2023-05-02T05:28:16;4.85;;;1.73;;
66886;SDS011;67239;51.680;5.976;2023-05-02T05:30:44;5.35;;;1.85;;
66886;SDS011;67239;51.680;5.976;2023-05-02T05:33:15;7.50;;;2.35;;
66886;SDS011;67239;51.680;5.976;2023-05-02T05:35:43;10.15;;;2.17;;
66886;SDS011;67239;51.680;5.976;2023-05-02T05:38:11;8.82;;;2.00;;
66886;SDS011;67239;51.680;5.976;2023-05-02T05:40:41;11.80;;;2.08;;
66886;SDS011;67239;51.680;5.976;2023-05-02T05:43:08;6.82;;;1.60;;
66886;SDS011;67239;51.680;5.976;2023-05-02T05:45:37;5.25;;;1.83;;
66886;SDS011;67239;51.680;5.976;2023-05-02T05:48:05;6.68;;;1.90;;
66886;SDS011;67239;51.680;5.976;2023-05-02T05:50:38;19.13;;;2.70;;
66886;SDS011;67239;51.680;5.976;2023-05-02T05:53:05;7.82;;;1.92;;
66886;SDS011;67239;51.680;5.976;2023-05-02T05:55:33;7.50;;;1.95;;
66886;SDS011;67239;51.680;5.976;2023-05-02T05:58:03;11.05;;;1.92;;
66886;SDS011;67239;51.680;5.976;2023-05-02T06:00:33;7.25;;;2.03;;
66886;SDS011;67239;51.680;5.976;2023-05-02T06:03:02;12.27;;;1.90;;
66886;SDS011;67239;51.680;5.976;2023-05-02T06:05:32;7.45;;;2.40;;
66886;SDS011;67239;51.680;5.976;2023-05-02T06:07:59;10.88;;;2.28;;
66886;SDS011;67239;51.680;5.976;2023-05-02T06:10:26;8.60;;;1.73;;
66886;SDS011;67239;51.680;5.976;2023-05-02T06:12:53;11.10;;;1.90;;
66886;SDS011;67239;51.680;5.976;2023-05-02T06:15:25;6.65;;;1.30;;
66886;SDS011;67239;51.680;5.976;2023-05-02T06:17:52;7.10;;;1.48;;
66886;SDS011;67239;51.680;5.976;2023-05-02T06:20:19;17.65;;;2.90;;
66886;SDS011;67239;51.680;5.976;2023-05-02T06:22:46;7.28;;;1.60;;
66886;SDS011;67239;51.680;5.976;2023-05-02T06:25:14;5.13;;;1.40;;
66886;SDS011;67239;51.680;5.976;2023-05-02T06:27:41;18.90;;;2.47;;
66886;SDS011;67239;51.680;5.976;2023-05-02T06:30:08;19.67;;;2.25;;
66886;SDS011;67239;51.680;5.976;2023-05-02T06:32:35;12.55;;;1.75;;
66886;SDS011;67239;51.680;5.976;2023-05-02T06:35:02;5.20;;;1.40;;
66886;SDS011;67239;51.680;5.976;2023-05-02T06:37:33;6.80;;;1.42;;
66886;SDS011;67239;51.680;5.976;2023-05-02T06:40:01;6.13;;;1.67;;
66886;SDS011;67239;51.680;5.976;2023-05-02T06:42:29;7.57;;;1.67;;
66886;SDS011;67239;51.680;5.976;2023-05-02T06:44:56;9.23;;;1.63;;
66886;SDS011;67239;51.680;5.976;2023-05-02T06:47:23;11.05;;;1.88;;
66886;SDS011;67239;51.680;5.976;2023-05-02T06:49:51;14.25;;;2.15;;
66886;SDS011;67239;51.680;5.976;2023-05-02T06:52:19;13.82;;;2.80;;
66886;SDS011;67239;51.680;5.976;2023-05-02T06:54:46;21.13;;;3.65;;
66886;SDS011;67239;51.680;5.976;2023-05-02T06:57:13;15.65;;;2.28;;
66886;SDS011;67239;51.680;5.976;2023-05-02T06:59:41;10.13;;;2.10;;
66886;SDS011;67239;51.680;5.976;2023-05-02T07:02:08;5.20;;;1.60;;
66886;SDS011;67239;51.680;5.976;2023-05-02T07:04:35;6.35;;;1.70;;
66886;SDS011;67239;51.680;5.976;2023-05-02T07:07:02;23.42;;;3.15;;
66886;SDS011;67239;51.680;5.976;2023-05-02T07:09:30;12.55;;;2.25;;
66886;SDS011;67239;51.680;5.976;2023-05-02T07:11:57;9.25;;;2.10;;
66886;SDS011;67239;51.680;5.976;2023-05-02T07:14:24;19.67;;;3.78;;
66886;SDS011;67239;51.680;5.976;2023-05-02T07:16:52;11.02;;;1.92;;
66886;SDS011;67239;51.680;5.976;2023-05-02T07:19:19;9.18;;;2.00;;
66886;SDS011;67239;51.680;5.976;2023-05-02T07:21:46;11.77;;;2.80;;
66886;SDS011;67239;51.680;5.976;2023-05-02T07:24:13;6.38;;;2.03;;
66886;SDS011;67239;51.680;5.976;2023-05-02T07:26:41;10.35;;;2.30;;
66886;SDS011;67239;51.680;5.976;2023-05-02T07:29:08;11.75;;;2.53;;
66886;SDS011;67239;51.680;5.976;2023-05-02T07:31:35;6.85;;;2.25;;
66886;SDS011;67239;51.680;5.976;2023-05-02T07:34:02;9.43;;;2.50;;
66886;SDS011;67239;51.680;5.976;2023-05-02T07:36:29;8.77;;;2.25;;
66886;SDS011;67239;51.680;5.976;2023-05-02T07:38:56;9.50;;;2.17;;
66886;SDS011;67239;51.680;5.976;2023-05-02T07:41:23;6.55;;;2.00;;
66886;SDS011;67239;51.680;5.976;2023-05-02T07:43:51;11.20;;;2.03;;
66886;SDS011;67239;51.680;5.976;2023-05-02T07:46:17;12.43;;;2.33;;
66886;SDS011;67239;51.680;5.976;2023-05-02T07:48:45;11.43;;;2.33;;
66886;SDS011;67239;51.680;5.976;2023-05-02T07:51:12;9.80;;;2.70;;
66886;SDS011;67239;51.680;5.976;2023-05-02T07:53:39;8.43;;;1.98;;
66886;SDS011;67239;51.680;5.976;2023-05-02T07:56:06;9.27;;;2.22;;
66886;SDS011;67239;51.680;5.976;2023-05-02T07:58:34;9.55;;;2.40;;
66886;SDS011;67239;51.680;5.976;2023-05-02T08:01:04;12.32;;;2.38;;
66886;SDS011;67239;51.680;5.976;2023-05-02T08:03:31;8.80;;;2.17;;
66886;SDS011;67239;51.680;5.976;2023-05-02T08:05:59;8.32;;;2.17;;
66886;SDS011;67239;51.680;5.976;2023-05-02T08:08:27;19.70;;;3.33;;
66886;SDS011;67239;51.680;5.976;2023-05-02T08:10:54;8.98;;;2.17;;
66886;SDS011;67239;51.680;5.976;2023-05-02T08:13:21;14.18;;;2.60;;
66886;SDS011;67239;51.680;5.976;2023-05-02T08:15:48;7.47;;;1.70;;
66886;SDS011;67239;51.680;5.976;2023-05-02T08:18:15;16.67;;;2.92;;
66886;SDS011;67239;51.680;5.976;2023-05-02T08:20:42;8.38;;;2.08;;
66886;SDS011;67239;51.680;5.976;2023-05-02T08:23:09;8.00;;;1.70;;
66886;SDS011;67239;51.680;5.976;2023-05-02T08:25:36;14.43;;;2.05;;
66886;SDS011;67239;51.680;5.976;2023-05-02T08:28:03;6.63;;;1.98;;
66886;SDS011;67239;51.680;5.976;2023-05-02T08:30:30;23.63;;;2.63;;
66886;SDS011;67239;51.680;5.976;2023-05-02T08:32:57;7.60;;;1.95;;
66886;SDS011;67239;51.680;5.976;2023-05-02T08:35:24;7.57;;;1.80;;
66886;SDS011;67239;51.680;5.976;2023-05-02T08:37:52;5.85;;;1.75;;
66886;SDS011;67239;51.680;5.976;2023-05-02T08:40:18;8.77;;;1.80;;
66886;SDS011;67239;51.680;5.976;2023-05-02T08:43:06;7.47;;;2.10;;
66886;SDS011;67239;51.680;5.976;2023-05-02T08:45:34;9.43;;;2.25;;
66886;SDS011;67239;51.680;5.976;2023-05-02T08:48:07;8.27;;;2.10;;
66886;SDS011;67239;51.680;5.976;2023-05-02T08:50:40;11.52;;;2.45;;
66886;SDS011;67239;51.680;5.976;2023-05-02T08:53:11;12.30;;;2.80;;
66886;SDS011;67239;51.680;5.976;2023-05-02T08:55:40;12.45;;;2.75;;
66886;SDS011;67239;51.680;5.976;2023-05-02T08:58:08;8.00;;;1.80;;
66886;SDS011;67239;51.680;5.976;2023-05-02T09:00:39;6.07;;;2.30;;
66886;SDS011;67239;51.680;5.976;2023-05-02T09:05:58;8.25;;;2.13;;
66886;SDS011;67239;51.680;5.976;2023-05-02T09:08:41;11.43;;;2.42;;
66886;SDS011;67239;51.680;5.976;2023-05-02T09:11:12;16.10;;;3.25;;
66886;SDS011;67239;51.680;5.976;2023-05-02T09:13:45;8.80;;;1.98;;
66886;SDS011;67239;51.680;5.976;2023-05-02T09:16:16;11.83;;;2.13;;
66886;SDS011;67239;51.680;5.976;2023-05-02T09:18:51;21.00;;;3.08;;
66886;SDS011;67239;51.680;5.976;2023-05-02T09:21:21;11.52;;;2.25;;
66886;SDS011;67239;51.680;5.976;2023-05-02T09:24:13;9.00;;;2.05;;
66886;SDS011;67239;51.680;5.976;2023-05-02T09:27:03;13.52;;;2.00;;
66886;SDS011;67239;51.680;5.976;2023-05-02T09:29:32;5.10;;;1.70;;
66886;SDS011;67239;51.680;5.976;2023-05-02T09:32:04;9.18;;;2.13;;
66886;SDS011;67239;51.680;5.976;2023-05-02T09:34:32;6.93;;;2.10;;
66886;SDS011;67239;51.680;5.976;2023-05-02T09:37:00;12.65;;;2.13;;
66886;SDS011;67239;51.680;5.976;2023-05-02T09:39:29;4.03;;;1.35;;
66886;SDS011;67239;51.680;5.976;2023-05-02T09:41:57;7.13;;;1.88;;
66886;SDS011;67239;51.680;5.976;2023-05-02T09:44:25;7.82;;;1.50;;
66886;SDS011;67239;51.680;5.976;2023-05-02T09:47:03;7.00;;;1.60;;
66886;SDS011;67239;51.680;5.976;2023-05-02T09:49:42;5.88;;;1.65;;
66886;SDS011;67239;51.680;5.976;2023-05-02T09:52:12;6.68;;;1.67;;
66886;SDS011;67239;51.680;5.976;2023-05-02T09:54:42;24.30;;;3.10;;
66886;SDS011;67239;51.680;5.976;2023-05-02T09:57:09;9.98;;;1.98;;
66886;SDS011;67239;51.680;5.976;2023-05-02T09:59:40;5.32;;;1.58;;
66886;SDS011;67239;51.680;5.976;2023-05-02T10:02:18;13.52;;;2.13;;
66886;SDS011;67239;51.680;5.976;2023-05-02T10:04:47;5.93;;;1.65;;
66886;SDS011;67239;51.680;5.976;2023-05-02T10:07:16;14.10;;;2.22;;
66886;SDS011;67239;51.680;5.976;2023-05-02T10:09:43;10.48;;;1.83;;
66886;SDS011;67239;51.680;5.976;2023-05-02T10:12:15;25.83;;;3.40;;
66886;SDS011;67239;51.680;5.976;2023-05-02T10:14:48;8.30;;;1.75;;
66886;SDS011;67239;51.680;5.976;2023-05-02T10:17:27;4.55;;;1.95;;
66886;SDS011;67239;51.680;5.976;2023-05-02T10:20:02;6.10;;;1.50;;
66886;SDS011;67239;51.680;5.976;2023-05-02T10:22:32;7.15;;;1.45;;
66886;SDS011;67239;51.680;5.976;2023-05-02T10:25:01;4.72;;;1.10;;
66886;SDS011;67239;51.680;5.976;2023-05-02T10:27:30;4.38;;;1.15;;
66886;SDS011;67239;51.680;5.976;2023-05-02T10:29:58;5.57;;;1.63;;
66886;SDS011;67239;51.680;5.976;2023-05-02T10:32:28;6.10;;;1.17;;
66886;SDS011;67239;51.680;5.976;2023-05-02T10:34:55;6.35;;;1.58;;
66886;SDS011;67239;51.680;5.976;2023-05-02T10:37:26;11.48;;;1.92;;
66886;SDS011;67239;51.680;5.976;2023-05-02T10:39:56;5.15;;;1.75;;
66886;SDS011;67239;51.680;5.976;2023-05-02T10:42:24;16.77;;;1.83;;
66886;SDS011;67239;51.680;5.976;2023-05-02T10:44:53;14.77;;;1.92;;
66886;SDS011;67239;51.680;5.976;2023-05-02T10:47:21;4.80;;;1.40;;
66886;SDS011;67239;51.680;5.976;2023-05-02T10:49:54;4.18;;;1.10;;
66886;SDS011;67239;51.680;5.976;2023-05-02T10:55:17;9.18;;;1.33;;
66886;SDS011;67239;51.680;5.976;2023-05-02T11:00:26;5.30;;;1.50;;
66886;SDS011;67239;51.680;5.976;2023-05-02T11:02:53;4.57;;;1.40;;
66886;SDS011;67239;51.680;5.976;2023-05-02T11:05:21;7.80;;;1.30;;
66886;SDS011;67239;51.680;5.976;2023-05-02T11:07:49;6.03;;;1.42;;
66886;SDS011;67239;51.680;5.976;2023-05-02T11:10:45;13.85;;;2.03;;
66886;SDS011;67239;51.680;5.976;2023-05-02T11:13:13;20.15;;;2.78;;
66886;SDS011;67239;51.680;5.976;2023-05-02T11:18:10;4.25;;;1.60;;
66886;SDS011;67239;51.680;5.976;2023-05-02T11:20:40;3.92;;;1.40;;
66886;SDS011;67239;51.680;5.976;2023-05-02T11:25:41;5.10;;;1.48;;
66886;SDS011;67239;51.680;5.976;2023-05-02T11:34:02;11.18;;;1.60;;
66886;SDS011;67239;51.680;5.976;2023-05-02T11:36:30;6.63;;;1.60;;
66886;SDS011;67239;51.680;5.976;2023-05-02T11:39:00;6.05;;;1.50;;
66886;SDS011;67239;51.680;5.976;2023-05-02T11:41:41;6.35;;;2.00;;
66886;SDS011;67239;51.680;5.976;2023-05-02T11:44:09;7.30;;;2.20;;
66886;SDS011;67239;51.680;5.976;2023-05-02T11:46:36;6.25;;;1.80;;
66886;SDS011;67239;51.680;5.976;2023-05-02T11:49:06;22.38;;;3.55;;
66886;SDS011;67239;51.680;5.976;2023-05-02T11:51:35;30.15;;;3.53;;
66886;SDS011;67239;51.680;5.976;2023-05-02T11:54:03;4.32;;;1.40;;
66886;SDS011;67239;51.680;5.976;2023-05-02T11:56:33;4.88;;;1.58;;
66886;SDS011;67239;51.680;5.976;2023-05-02T11:59:01;5.82;;;1.50;;
66886;SDS011;67239;51.680;5.976;2023-05-02T12:01:29;10.45;;;2.15;;
66886;SDS011;67239;51.680;5.976;2023-05-02T12:04:03;11.20;;;2.25;;
66886;SDS011;67239;51.680;5.976;2023-05-02T12:06:35;4.13;;;1.50;;
66886;SDS011;67239;51.680;5.976;2023-05-02T12:09:11;7.35;;;1.90;;
66886;SDS011;67239;51.680;5.976;2023-05-02T12:11:42;8.13;;;1.95;;
66886;SDS011;67239;51.680;5.976;2023-05-02T12:14:10;12.60;;;1.90;;
66886;SDS011;67239;51.680;5.976;2023-05-02T12:16:38;5.85;;;1.70;;
66886;SDS011;67239;51.680;5.976;2023-05-02T12:19:05;6.88;;;1.73;;
66886;SDS011;67239;51.680;5.976;2023-05-02T12:21:32;7.45;;;1.80;;
66886;SDS011;67239;51.680;5.976;2023-05-02T12:24:00;4.70;;;1.67;;
66886;SDS011;67239;51.680;5.976;2023-05-02T12:26:28;3.65;;;1.50;;
66886;SDS011;67239;51.680;5.976;2023-05-02T12:28:56;10.70;;;2.17;;
66886;SDS011;67239;51.680;5.976;2023-05-02T12:31:25;7.05;;;1.92;;
66886;SDS011;67239;51.680;5.976;2023-05-02T12:33:57;12.45;;;2.00;;
66886;SDS011;67239;51.680;5.976;2023-05-02T12:36:26;5.32;;;1.67;;
66886;SDS011;67239;51.680;5.976;2023-05-02T12:38:55;5.03;;;1.85;;
66886;SDS011;67239;51.680;5.976;2023-05-02T12:41:31;5.13;;;1.60;;
66886;SDS011;67239;51.680;5.976;2023-05-02T12:44:01;5.27;;;1.90;;
66886;SDS011;67239;51.680;5.976;2023-05-02T12:46:29;7.95;;;2.13;;
66886;SDS011;67239;51.680;5.976;2023-05-02T12:49:01;5.78;;;1.60;;
66886;SDS011;67239;51.680;5.976;2023-05-02T12:51:31;5.93;;;1.35;;
66886;SDS011;67239;51.680;5.976;2023-05-02T12:53:59;6.55;;;1.60;;
66886;SDS011;67239;51.680;5.976;2023-05-02T12:56:27;7.70;;;1.52;;
66886;SDS011;67239;51.680;5.976;2023-05-02T12:58:58;6.80;;;1.60;;
66886;SDS011;67239;51.680;5.976;2023-05-02T13:01:27;9.75;;;1.75;;
66886;SDS011;67239;51.680;5.976;2023-05-02T13:03:54;27.58;;;2.70;;
66886;SDS011;67239;51.680;5.976;2023-05-02T13:06:21;9.57;;;2.10;;
66886;SDS011;67239;51.680;5.976;2023-05-02T13:08:48;6.35;;;1.88;;
66886;SDS011;67239;51.680;5.976;2023-05-02T13:11:15;11.10;;;2.45;;
66886;SDS011;67239;51.680;5.976;2023-05-02T13:13:43;4.45;;;1.77;;
66886;SDS011;67239;51.680;5.976;2023-05-02T13:16:10;23.17;;;2.78;;
66886;SDS011;67239;51.680;5.976;2023-05-02T13:18:37;15.60;;;2.40;;
66886;SDS011;67239;51.680;5.976;2023-05-02T13:21:04;25.85;;;2.75;;
66886;SDS011;67239;51.680;5.976;2023-05-02T13:23:31;5.45;;;1.77;;
66886;SDS011;67239;51.680;5.976;2023-05-02T13:25:59;23.00;;;3.00;;
66886;SDS011;67239;51.680;5.976;2023-05-02T13:28:26;4.78;;;2.05;;
66886;SDS011;67239;51.680;5.976;2023-05-02T13:30:54;5.15;;;1.95;;
66886;SDS011;67239;51.680;5.976;2023-05-02T13:33:21;9.13;;;2.08;;
66886;SDS011;67239;51.680;5.976;2023-05-02T13:35:48;9.07;;;2.30;;
66886;SDS011;67239;51.680;5.976;2023-05-02T13:38:15;7.97;;;2.22;;
66886;SDS011;67239;51.680;5.976;2023-05-02T13:40:42;8.43;;;2.17;;
66886;SDS011;67239;51.680;5.976;2023-05-02T13:43:09;15.55;;;2.20;;
66886;SDS011;67239;51.680;5.976;2023-05-02T13:45:36;4.75;;;2.05;;
66886;SDS011;67239;51.680;5.976;2023-05-02T13:48:03;8.45;;;2.22;;
66886;SDS011;67239;51.680;5.976;2023-05-02T13:50:31;11.75;;;2.10;;
66886;SDS011;67239;51.680;5.976;2023-05-02T13:53:02;11.32;;;2.28;;
66886;SDS011;67239;51.680;5.976;2023-05-02T13:55:29;16.73;;;2.83;;
66886;SDS011;67239;51.680;5.976;2023-05-02T13:57:56;10.60;;;2.33;;
66886;SDS011;67239;51.680;5.976;2023-05-02T14:00:23;14.75;;;2.33;;
66886;SDS011;67239;51.680;5.976;2023-05-02T14:02:51;19.17;;;3.05;;
66886;SDS011;67239;51.680;5.976;2023-05-02T14:05:18;7.20;;;2.05;;
66886;SDS011;67239;51.680;5.976;2023-05-02T14:07:45;13.00;;;2.63;;
66886;SDS011;67239;51.680;5.976;2023-05-02T14:10:12;8.60;;;2.05;;
66886;SDS011;67239;51.680;5.976;2023-05-02T14:12:39;7.57;;;2.25;;
66886;SDS011;67239;51.680;5.976;2023-05-02T14:15:07;7.65;;;2.25;;
66886;SDS011;67239;51.680;5.976;2023-05-02T14:17:34;7.32;;;2.38;;
66886;SDS011;67239;51.680;5.976;2023-05-02T14:20:01;10.27;;;2.80;;
66886;SDS011;67239;51.680;5.976;2023-05-02T14:22:29;7.40;;;2.10;;
66886;SDS011;67239;51.680;5.976;2023-05-02T14:24:56;5.45;;;2.13;;
66886;SDS011;67239;51.680;5.976;2023-05-02T14:27:23;13.05;;;2.47;;
66886;SDS011;67239;51.680;5.976;2023-05-02T14:29:51;9.80;;;2.10;;
66886;SDS011;67239;51.680;5.976;2023-05-02T14:32:18;6.85;;;2.13;;
66886;SDS011;67239;51.680;5.976;2023-05-02T14:34:45;5.97;;;2.05;;
66886;SDS011;67239;51.680;5.976;2023-05-02T14:37:12;10.43;;;2.45;;
66886;SDS011;67239;51.680;5.976;2023-05-02T14:39:39;5.60;;;2.00;;
66886;SDS011;67239;51.680;5.976;2023-05-02T14:42:08;7.90;;;1.70;;
66886;SDS011;67239;51.680;5.976;2023-05-02T14:44:34;5.15;;;2.17;;
66886;SDS011;67239;51.680;5.976;2023-05-02T14:47:02;11.52;;;2.20;;
66886;SDS011;67239;51.680;5.976;2023-05-02T14:49:29;12.75;;;2.40;;
66886;SDS011;67239;51.680;5.976;2023-05-02T14:51:56;8.48;;;2.72;;
66886;SDS011;67239;51.680;5.976;2023-05-02T14:54:27;7.25;;;3.25;;
66886;SDS011;67239;51.680;5.976;2023-05-02T14:56:56;15.52;;;2.95;;
66886;SDS011;67239;51.680;5.976;2023-05-02T14:59:28;8.18;;;2.30;;
66886;SDS011;67239;51.680;5.976;2023-05-02T15:01:56;5.35;;;1.63;;
66886;SDS011;67239;51.680;5.976;2023-05-02T15:04:23;6.65;;;1.98;;
66886;SDS011;67239;51.680;5.976;2023-05-02T15:06:53;7.10;;;2.25;;
66886;SDS011;67239;51.680;5.976;2023-05-02T15:09:21;7.43;;;2.00;;
66886;SDS011;67239;51.680;5.976;2023-05-02T15:11:49;8.25;;;2.40;;
66886;SDS011;67239;51.680;5.976;2023-05-02T15:14:15;7.63;;;2.20;;
66886;SDS011;67239;51.680;5.976;2023-05-02T15:16:43;14.40;;;3.00;;
66886;SDS011;67239;51.680;5.976;2023-05-02T15:19:10;14.05;;;2.50;;
66886;SDS011;67239;51.680;5.976;2023-05-02T15:21:37;8.48;;;2.42;;
66886;SDS011;67239;51.680;5.976;2023-05-02T15:24:04;7.38;;;2.03;;
66886;SDS011;67239;51.680;5.976;2023-05-02T15:26:32;7.85;;;2.10;;
66886;SDS011;67239;51.680;5.976;2023-05-02T15:28:59;7.78;;;2.75;;
66886;SDS011;67239;51.680;5.976;2023-05-02T15:31:26;7.68;;;2.40;;
66886;SDS011;67239;51.680;5.976;2023-05-02T15:33:53;5.57;;;2.10;;